地図

経路データ

SID SEASON NUMBER BASIN SUBBASIN NAME ISO_TIME NATURE LAT LON WMO_WIND WMO_PRES WMO_AGENCY TRACK_TYPE DIST2LAND LANDFALL IFLAG USA_AGENCY USA_ATCF_ID USA_LAT USA_LON USA_RECORD USA_STATUS USA_WIND USA_PRES USA_SSHS USA_R34_NE USA_R34_SE USA_R34_SW USA_R34_NW USA_R50_NE USA_R50_SE USA_R50_SW USA_R50_NW USA_R64_NE USA_R64_SE USA_R64_SW USA_R64_NW USA_POCI USA_ROCI USA_RMW USA_EYE TOKYO_LAT TOKYO_LON TOKYO_GRADE TOKYO_WIND TOKYO_PRES TOKYO_R50_DIR TOKYO_R50_LONG TOKYO_R50_SHORT TOKYO_R30_DIR TOKYO_R30_LONG TOKYO_R30_SHORT TOKYO_LAND CMA_LAT CMA_LON CMA_CAT CMA_WIND CMA_PRES HKO_LAT HKO_LON HKO_CAT HKO_WIND HKO_PRES NEWDELHI_LAT NEWDELHI_LON NEWDELHI_GRADE NEWDELHI_WIND NEWDELHI_PRES NEWDELHI_CI NEWDELHI_DP NEWDELHI_POCI REUNION_LAT REUNION_LON REUNION_TYPE REUNION_WIND REUNION_PRES REUNION_TNUM REUNION_CI REUNION_RMW REUNION_R34_NE REUNION_R34_SE REUNION_R34_SW REUNION_R34_NW REUNION_R50_NE REUNION_R50_SE REUNION_R50_SW REUNION_R50_NW REUNION_R64_NE REUNION_R64_SE REUNION_R64_SW REUNION_R64_NW BOM_LAT BOM_LON BOM_TYPE BOM_WIND BOM_PRES BOM_TNUM BOM_CI BOM_RMW BOM_R34_NE BOM_R34_SE BOM_R34_SW BOM_R34_NW BOM_R50_NE BOM_R50_SE BOM_R50_SW BOM_R50_NW BOM_R64_NE BOM_R64_SE BOM_R64_SW BOM_R64_NW BOM_ROCI BOM_POCI BOM_EYE BOM_POS_METHOD BOM_PRES_METHOD NADI_LAT NADI_LON NADI_CAT NADI_WIND NADI_PRES WELLINGTON_LAT WELLINGTON_LON WELLINGTON_WIND WELLINGTON_PRES DS824_LAT DS824_LON DS824_STAGE DS824_WIND DS824_PRES TD9636_LAT TD9636_LON TD9636_STAGE TD9636_WIND TD9636_PRES TD9635_LAT TD9635_LON TD9635_WIND TD9635_PRES TD9635_ROCI NEUMANN_LAT NEUMANN_LON NEUMANN_CLASS NEUMANN_WIND NEUMANN_PRES MLC_LAT MLC_LON MLC_CLASS MLC_WIND MLC_PRES USA_GUST BOM_GUST BOM_GUST_PER REUNION_GUST REUNION_GUST_PER USA_SEAHGT USA_SEARAD_NE USA_SEARAD_SE USA_SEARAD_SW USA_SEARAD_NW STORM_SPEED STORM_DIR
2003319N13172 2003 98 WP MM LUPIT 2003-11-14 12:00:00 TS 12.8000 172.300 main 2694 2694 O_____________ jtwc_wp WP262003 12.8000 172.300 TD 20 1004 -1 6 323
2003319N13172 2003 98 WP MM LUPIT 2003-11-14 15:00:00 TS 13.0575 172.100 main 2713 2708 P_____________ WP262003 13.0575 172.100 TD 20 1004 -1 6 322
2003319N13172 2003 98 WP MM LUPIT 2003-11-14 18:00:00 TS 13.3000 171.900 main 2723 2723 O_____________ jtwc_wp WP262003 13.3000 171.900 TD 20 1004 -1 6 320
2003319N13172 2003 98 WP MM LUPIT 2003-11-14 21:00:00 TS 13.5150 171.700 main 2733 2733 P_____________ WP262003 13.5150 171.700 TD 20 1004 -1 6 316
2003319N13172 2003 98 WP MM LUPIT 2003-11-15 00:00:00 TS 13.7000 171.500 main 2743 2738 O_____________ jtwc_wp WP262003 13.7000 171.500 TD 20 1004 -1 5 313
2003319N13172 2003 98 WP MM LUPIT 2003-11-15 03:00:00 TS 13.8650 171.307 main 2754 2749 P_____________ WP262003 13.8650 171.307 TD 20 1004 -1 5 308
2003319N13172 2003 98 WP MM LUPIT 2003-11-15 06:00:00 TS 14.0000 171.100 main 2755 2750 O_____________ jtwc_wp WP262003 14.0000 171.100 TD 20 1004 -1 5 301
2003319N13172 2003 98 WP MM LUPIT 2003-11-15 09:00:00 TS 14.1225 170.865 main 2756 2752 P_____________ WP262003 14.1225 170.865 TD 20 1004 -1 5 292
2003319N13172 2003 98 WP MM LUPIT 2003-11-15 12:00:00 TS 14.2000 170.600 main 2753 2740 O_____________ jtwc_wp WP262003 14.2000 170.600 TD 20 1004 -1 5 280
2003319N13172 2003 98 WP MM LUPIT 2003-11-15 15:00:00 TS 14.2149 170.322 main 2740 2728 P_____________ WP262003 14.2149 170.322 TD 17 1005 -1 6 270
2003319N13172 2003 98 WP MM LUPIT 2003-11-15 18:00:00 TS 14.2000 170.000 main 2728 2711 O_____________ jtwc_wp WP262003 14.2000 170.000 TD 15 1006 -1 7 269
2003319N13172 2003 98 WP MM LUPIT 2003-11-15 21:00:00 TS 14.2000 169.615 main 2711 2696 P_____________ WP262003 14.2000 169.615 TD 15 1006 -1 8 270
2003319N13172 2003 98 WP MM LUPIT 2003-11-16 00:00:00 TS 14.2000 169.200 main 2696 2681 O_____________ jtwc_wp WP262003 14.2000 169.200 TD 15 1006 -1 8 272
2003319N13172 2003 98 WP MM LUPIT 2003-11-16 03:00:00 TS 14.2224 168.800 main 2681 2660 P_____________ WP262003 14.2224 168.800 TD 15 1006 -1 8 270
2003319N13172 2003 98 WP MM LUPIT 2003-11-16 06:00:00 TS 14.2000 168.400 main 2660 2623 O_____________ jtwc_wp WP262003 14.2000 168.400 TD 15 1006 -1 8 261
2003319N13172 2003 98 WP MM LUPIT 2003-11-16 09:00:00 TS 14.0951 167.970 main 2623 2578 P_____________ WP262003 14.0951 167.970 TD 15 1006 -1 8 249
2003319N13172 2003 98 WP MM LUPIT 2003-11-16 12:00:00 TS 13.9000 167.600 main 2578 2538 O_____________ jtwc_wp WP262003 13.9000 167.600 TD 15 1006 -1 8 232
2003319N13172 2003 98 WP MM LUPIT 2003-11-16 15:00:00 TS 13.6224 167.355 main 2538 2499 P_____________ WP262003 13.6224 167.355 TD 15 1006 -1 7 213
2003319N13172 2003 98 WP MM LUPIT 2003-11-16 18:00:00 TS 13.3000 167.200 main 2499 2466 O_____________ jtwc_wp WP262003 13.3000 167.200 TD 15 1006 -1 7 203
2003319N13172 2003 98 WP MM LUPIT 2003-11-16 21:00:00 TS 13.0000 167.078 main 2466 2434 P_____________ WP262003 13.0000 167.078 TD 15 1006 -1 6 198
2003319N13172 2003 98 WP MM LUPIT 2003-11-17 00:00:00 TS 12.7000 167.000 main 2434 2401 O_____________ jtwc_wp WP262003 12.7000 167.000 TD 15 1006 -1 6 192
2003319N13172 2003 98 WP MM LUPIT 2003-11-17 03:00:00 TS 12.4000 166.943 main 2401 2374 P_____________ WP262003 12.4000 166.943 TD 15 1006 -1 6 189
2003319N13172 2003 98 WP MM LUPIT 2003-11-17 06:00:00 TS 12.1000 166.900 main 2374 2346 O_____________ jtwc_wp WP262003 12.1000 166.900 TD 15 1006 -1 6 187
2003319N13172 2003 98 WP MM LUPIT 2003-11-17 09:00:00 TS 11.7925 166.873 main 2346 2312 P_____________ WP262003 11.7925 166.873 TD 15 1006 -1 6 189
2003319N13172 2003 98 WP MM LUPIT 2003-11-17 12:00:00 TS 11.5000 166.800 main 2312 2279 O_____________ jtwc_wp WP262003 11.5000 166.800 TD 15 1006 -1 6 201
2003319N13172 2003 98 WP MM LUPIT 2003-11-17 15:00:00 TS 11.2125 166.645 main 2272 2242 P_____________ WP262003 11.2125 166.645 TD 15 1006 -1 6 218
2003319N13172 2003 98 WP MM LUPIT 2003-11-17 18:00:00 TS 11.0000 166.400 main 2242 2214 O_____________ jtwc_wp WP262003 11.0000 166.400 TD 15 1006 -1 6 242
2003319N13172 2003 98 WP MM LUPIT 2003-11-17 21:00:00 TS 10.9125 166.065 main 2214 2189 P_____________ WP262003 10.9125 166.065 TD 17 1005 -1 7 262
2003319N13172 2003 98 WP MM LUPIT 2003-11-18 00:00:00 TS 10.9000 165.700 main 2189 2167 O_____________ jtwc_wp WP262003 10.9000 165.700 TD 20 1004 -1 7 268
2003319N13172 2003 98 WP MM LUPIT 2003-11-18 03:00:00 TS 10.8924 165.400 main 2167 2146 P_____________ WP262003 10.8924 165.400 TD 20 1004 -1 6 270
2003319N13172 2003 98 WP MM LUPIT 2003-11-18 06:00:00 TS 10.9000 165.100 main 2146 2125 O_____________ jtwc_wp WP262003 10.9000 165.100 TD 20 1004 -1 6 271
2003319N13172 2003 98 WP MM LUPIT 2003-11-18 09:00:00 TS 10.9000 164.758 main 2125 2069 P_____________ WP262003 10.9000 164.758 TD 22 1003 -1 8 235
2003319N13172 2003 98 WP MM LUPIT 2003-11-18 12:00:00 TS 10.4333 164.433 1004 tokyo main 2054 2007 OOO___________ jtwc_wp WP262003 10.9000 164.400 TD 25 1002 -1 1008 120 40 9.50000 164.500 2 1004 0 0 0 9.50000 164.500 1 23 1002 11 219
2003319N13172 2003 98 WP MM LUPIT 2003-11-18 15:00:00 TS 10.0601 164.069 main 2007 1960 PPP___________ WP262003 10.9225 164.043 TD 25 1002 -1 1008 120 40 9.19765 164.095 2 1003 0 0 9.19765 164.095 1 23 1002 9 225
2003319N13172 2003 98 WP MM LUPIT 2003-11-18 18:00:00 TS 9.76000 163.760 1002 tokyo main 1960 1929 OOO___________ jtwc_wp WP262003 10.9000 163.700 TD 25 1002 -1 1008 120 40 9.00000 163.800 2 1002 0 0 0 9.00000 163.800 1 23 1002 7 225
2003319N13172 2003 98 WP MM LUPIT 2003-11-18 21:00:00 TS 9.57828 163.578 main 1929 1907 PPP___________ WP262003 10.7950 163.378 TD 25 1002 -1 1008 120 40 8.96992 163.678 2 1002 0 0 8.96992 163.678 1 23 1002 4 235
2003319N13172 2003 98 WP MM LUPIT 2003-11-19 00:00:00 TS 9.53333 163.433 1002 tokyo main 1907 1891 OOO___________ jtwc_wp WP262003 10.6000 163.100 TD 25 1002 -1 1008 120 40 9.00000 163.600 2 1002 0 0 0 9.00000 163.600 1 23 1002 4 243
2003319N13172 2003 98 WP MM LUPIT 2003-11-19 03:00:00 TS 9.40997 163.248 main 1884 1862 PPP___________ WP262003 10.3150 162.885 TD 25 1002 -1 1008 120 40 8.95748 163.430 2 1002 0 0 8.95748 163.430 1 23 1002 5 236
2003319N13172 2003 98 WP MM LUPIT 2003-11-19 06:00:00 TS 9.26667 163.033 1002 tokyo main 1862 1831 OOO___________ jtwc_wp WP262003 10.0000 162.700 TD 25 1002 -1 1008 120 40 8.90000 163.200 2 1002 0 0 0 8.90000 163.200 1 23 1002 6 241
2003319N13172 2003 98 WP MM LUPIT 2003-11-19 09:00:00 TS 9.14003 162.764 main 1831 1808 PPP___________ WP262003 9.73500 162.493 TD 25 1003 -1 1007 120 40 8.84254 162.900 2 1002 0 0 8.84254 162.900 1 23 1002 5 240
2003319N13172 2003 98 WP MM LUPIT 2003-11-19 12:00:00 TS 9.01538 162.585 1002 tokyo main 1808 1793 OOOO__________ jtwc_wp WP262003 9.50000 162.300 TD 25 1004 -1 1007 120 40 8.80000 162.600 2 1002 0 0 0 8.80000 162.600 1 23 1002 8.80000 163.600 TD 25 1000 4 235
2003319N13172 2003 98 WP MM LUPIT 2003-11-19 15:00:00 TS 8.92389 162.453 main 1793 1780 PPPP__________ WP262003 9.26997 162.150 TD 25 1003 -1 1007 120 40 8.78498 162.370 2 1002 0 0 8.78496 162.385 1 23 1002 8.78737 163.362 TD 25 1000 3 244
2003319N13172 2003 98 WP MM LUPIT 2003-11-19 18:00:00 TS 8.88000 162.307 1002 tokyo main 1780 1767 OOOO__________ jtwc_wp WP262003 9.10000 162.000 TD 25 1002 -1 1007 120 40 8.80000 162.200 2 1002 0 0 0 8.80000 162.200 1 23 1002 8.80000 163.000 TD 25 1000 3 265
2003319N13172 2003 98 WP MM LUPIT 2003-11-19 21:00:00 TS 8.89437 162.106 main 1767 1746 PPPP__________ WP262003 9.02750 161.808 TD 25 1002 -1 1006 110 40 8.84984 162.152 2 1003 0 0 8.84996 162.015 1 23 1002 8.85020 162.450 TD 25 1000 5 275
2003319N13172 2003 98 WP MM LUPIT 2003-11-20 00:00:00 TS 8.92500 161.825 1004 tokyo main 1746 1726 OOOO__________ jtwc_wp WP262003 9.00000 161.600 TD 25 1002 -1 1006 100 40 8.90000 162.000 2 1004 0 0 0 8.90000 161.800 1 23 1002 8.90000 161.900 TD 25 1000 6 272
2003319N13172 2003 98 WP MM LUPIT 2003-11-20 03:00:00 TS 8.92004 161.487 main 1726 1706 PPPP__________ WP262003 8.94249 161.400 TD 27 1001 -1 1006 110 35 8.91532 161.465 2 1003 0 0 8.90751 161.515 1 23 1002 8.91484 161.570 TD 25 1000 7 268
2003319N13172 2003 98 WP MM LUPIT 2003-11-20 06:00:00 TS 8.90000 161.150 1002 tokyo main 1706 1686 OOOO__________ jtwc_wp WP262003 8.90000 161.200 TD 30 1000 -1 1007 120 30 8.90000 160.900 2 1002 0 0 0 8.90000 161.200 1 23 1002 8.90000 161.300 TD 25 1000 6 266
2003319N13172 2003 98 WP MM LUPIT 2003-11-20 09:00:00 TS 8.87872 160.869 main 1686 1667 PPPP__________ WP262003 8.89246 161.015 TD 30 1000 -1 1007 120 30 8.85736 160.640 2 1003 0 0 8.90751 160.885 1 26 1001 8.85754 160.935 TD 27 999 5 265
2003319N13172 2003 98 WP MM LUPIT 2003-11-20 12:00:00 TS 8.85000 160.625 1004 tokyo main 1667 1645 OOOO__________ jtwc_wp WP262003 8.90000 160.800 TD 30 1000 -1 1007 120 30 8.80000 160.500 2 1004 0 0 0 8.90000 160.600 1 29 1000 8.80000 160.600 TD 30 998 5 261
2003319N13172 2003 98 WP MM LUPIT 2003-11-20 15:00:00 TS 8.81058 160.414 main 1645 1632 PPPP__________ WP262003 8.89247 160.530 TD 32 998 -1 1006 80 22 8.74996 160.358 2 1002 0 0 8.85745 160.393 1 29 1000 8.74244 160.378 TD 30 998 4 260
2003319N13172 2003 98 WP MM LUPIT 2003-11-20 18:00:00 TS 8.77500 160.200 1000 tokyo main 1632 1611 OOOO__________ jtwc_wp WP262003 8.90000 160.200 TS 35 997 0 15 15 15 15 1006 40 15 8.70000 160.200 2 1000 0 0 0 8.80000 160.200 1 29 1000 8.70000 160.200 TD 30 998 4 262
2003319N13172 2003 98 WP MM LUPIT 2003-11-20 21:00:00 TS 8.74922 159.985 main 1611 1593 PPPP__________ WP262003 8.94239 159.845 TS 35 997 0 15 15 15 15 1006 50 15 8.62735 160.017 2 1000 0 0 8.73484 160.010 1 29 1000 8.69230 160.068 TD 30 998 5 267
2003319N13172 2003 98 WP MM LUPIT 2003-11-21 00:00:00 TS 8.75000 159.650 1000 tokyo main 1602 1573 OOOO__________ jtwc_wp WP262003 9.00000 159.400 TS 35 997 0 15 15 15 15 1006 60 15 8.60000 159.700 2 1000 0 0 0 8.70000 159.700 1 29 1000 8.70000 159.800 TD 30 998 9 273
2003319N13172 2003 98 WP MM LUPIT 2003-11-21 03:00:00 TS 8.79803 159.122 main 1568 1533 PPPP__________ WP262003 9.06495 158.845 TS 35 997 0 15 15 15 15 1006 90 15 8.68485 159.198 2 1000 0 0 8.74234 159.198 1 29 1000 8.69997 159.247 TD 30 998 12 275
2003319N13172 2003 98 WP MM LUPIT 2003-11-21 06:00:00 TS 8.85000 158.425 1000 tokyo main 1537 1500 OOOO__________ jtwc_wp WP262003 9.10000 158.200 TS 35 997 0 15 15 15 15 1007 120 15 8.80000 158.500 2 1000 0 0 0 8.80000 158.500 1 29 1000 8.70000 158.500 TD 30 998 15 273
2003319N13172 2003 98 WP MM LUPIT 2003-11-21 09:00:00 TS 8.87439 157.621 main 1495 1455 PPPP__________ WP262003 9.07245 157.515 TS 37 995 0 1007 120 15 8.88757 157.645 2 999 0 0 8.82257 157.645 1 31 999 8.71499 157.680 TD 32 996 17 270
2003319N13172 2003 98 WP MM LUPIT 2003-11-21 12:00:00 TS 8.85000 156.750 35 998 tokyo main 1455 1392 OOOO__________ jtwc_wp WP262003 9.00000 156.800 TS 40 994 0 1007 120 15 8.90000 156.700 3 35 998 0 9 60 60 0 8.80000 156.700 2 34 998 8.70000 156.800 TS 35 994 17 265
2003319N13172 2003 98 WP MM LUPIT 2003-11-21 15:00:00 TS 8.73557 155.892 main 1392 1349 PPPP__________ WP262003 8.89233 156.107 TS 42 992 0 1006 130 30 8.76503 155.762 3 40 995 0 9 70 70 8.69253 155.762 2 36 996 8.59241 155.935 TS 37 992 17 262
2003319N13172 2003 98 WP MM LUPIT 2003-11-21 18:00:00 TS 8.62500 155.075 45 992 tokyo main 1349 1324 OOOO__________ jtwc_wp WP262003 8.80000 155.400 TS 45 991 0 90 90 120 100 1005 140 45 8.60000 154.900 3 45 992 0 9 80 80 0 8.60000 154.900 2 38 995 8.50000 155.100 TS 40 990 15 265
2003319N13172 2003 98 WP MM LUPIT 2003-11-21 21:00:00 TS 8.61096 154.362 main 1324 1303 PPPP__________ WP262003 8.78485 154.665 TS 52 985 0 105 95 110 110 1005 140 32 8.51210 154.228 3 47 988 0 9 90 90 8.62710 154.228 2 43 992 8.51981 154.328 TS 45 985 14 271
2003319N13172 2003 98 WP MM LUPIT 2003-11-22 00:00:00 TS 8.65000 153.675 50 985 tokyo main 1314 1298 OOOO__________ jtwc_wp WP262003 8.80000 153.900 TS 60 980 0 120 100 100 120 1005 140 20 8.50000 153.600 4 50 985 0 9 100 100 0 8.70000 153.600 3 48 990 8.60000 153.600 STS 50 980 14 274
2003319N13172 2003 98 WP MM LUPIT 2003-11-22 03:00:00 TS 8.71234 152.942 main 1296 1289 PPPP__________ WP262003 8.79988 153.107 TS 62 978 0 120 100 100 120 1005 140 20 8.58494 152.865 4 50 985 0 9 100 100 8.75744 152.865 3 48 987 8.70710 152.930 STS 52 977 15 275
2003319N13172 2003 98 WP MM LUPIT 2003-11-22 06:00:00 TS 8.77500 152.175 50 985 tokyo main 1296 1289 OOOO__________ jtwc_wp WP262003 8.80000 152.300 TY 65 976 1 120 100 100 120 1005 140 20 8.70000 152.100 4 50 985 0 9 100 100 0 8.80000 152.100 3 48 985 8.80000 152.200 STS 55 975 16 274
2003319N13172 2003 98 WP MM LUPIT 2003-11-22 09:00:00 TS 8.81003 151.348 main 1289 1271 PPPP__________ WP262003 8.79983 151.500 TY 67 974 1 120 100 100 120 1005 140 20 8.79501 151.320 4 50 982 0 9 120 100 8.83751 151.320 3 51 982 8.80778 151.250 STS 55 975 16 271
2003319N13172 2003 98 WP MM LUPIT 2003-11-22 12:00:00 TS 8.80000 150.550 50 980 tokyo main 1271 1252 OOOO__________ jtwc_wp WP262003 8.80000 150.700 TY 70 972 1 120 100 100 120 1005 140 20 8.80000 150.600 4 50 980 0 8 140 100 0 8.80000 150.600 3 54 980 8.80000 150.300 STS 55 975 15 268
2003319N13172 2003 98 WP MM LUPIT 2003-11-22 15:00:00 TS 8.75351 149.876 main 1252 1217 PPPP__________ WP262003 8.84496 149.878 TY 72 969 1 120 100 100 120 1005 140 20 8.63721 150.035 4 50 980 0 8 150 110 8.62971 150.035 3 54 980 8.90217 149.555 STS 57 972 13 262
2003319N13172 2003 98 WP MM LUPIT 2003-11-22 18:00:00 TS 8.62500 149.250 50 980 tokyo main 1217 1184 OOOO__________ jtwc_wp WP262003 8.80000 149.100 TY 75 967 1 120 100 100 120 1005 140 20 8.40000 149.500 4 50 980 0 8 160 120 0 8.40000 149.500 3 54 980 8.90000 148.900 STS 60 970 13 253
2003319N13172 2003 98 WP MM LUPIT 2003-11-22 21:00:00 TS 8.35493 148.590 main 1184 1144 PPPP__________ WP262003 8.52231 148.420 TY 77 965 1 125 100 100 125 1005 140 17 8.16253 148.850 4 52 977 0 8 160 120 8.16235 148.887 3 56 977 8.57252 148.205 STS 62 967 14 248
2003319N13172 2003 98 WP MM LUPIT 2003-11-23 00:00:00 TS 8.10000 147.950 55 975 tokyo main 1144 1131 OOOO__________ jtwc_wp WP262003 8.20000 147.800 TY 80 963 1 130 100 100 130 1005 140 15 8.00000 148.200 4 55 975 9 30 30 8 160 120 0 8.00000 148.200 3 58 975 8.20000 147.600 T 65 965 13 255
2003319N13172 2003 98 WP MM LUPIT 2003-11-23 03:00:00 TS 8.03053 147.353 main 1131 1131 PPPP__________ WP262003 8.01241 147.185 TY 82 960 1 130 100 100 130 1005 140 15 8.02727 147.658 4 57 972 9 30 30 8 160 120 8.02773 147.370 3 58 975 8.05470 147.200 T 67 962 12 266
2003319N13172 2003 98 WP MM LUPIT 2003-11-23 06:00:00 TS 8.02500 146.775 60 970 tokyo main 1131 1131 OOOO__________ jtwc_wp WP262003 7.90000 146.600 TY 85 958 2 130 100 100 130 1005 140 15 8.10000 147.100 4 60 970 9 30 30 8 160 120 0 8.10000 146.600 3 58 975 8.00000 146.800 T 70 960 12 268
2003319N13172 2003 98 WP MM LUPIT 2003-11-23 09:00:00 TS 7.98057 146.182 main 1132 1124 PPPP__________ WP262003 7.82743 146.035 TY 87 956 2 135 100 100 125 1005 140 15 8.08006 146.408 4 65 967 9 40 40 8 180 130 8.06465 146.120 3 63 970 7.95015 146.165 T 72 957 12 265
2003319N13172 2003 98 WP MM LUPIT 2003-11-23 12:00:00 TS 7.92500 145.600 70 965 tokyo main 1126 1121 OOOO__________ jtwc_wp WP262003 7.80000 145.500 TY 90 954 2 140 100 100 120 1005 140 15 8.00000 145.700 5 70 965 9 50 50 8 200 140 0 8.00000 145.700 4 68 965 7.90000 145.500 T 75 955 12 263
2003319N13172 2003 98 WP MM LUPIT 2003-11-23 15:00:00 TS 7.83692 145.001 main 1123 1123 PPPP__________ WP262003 7.76998 144.970 TY 92 951 2 140 100 100 120 1005 140 15 7.83504 145.025 5 72 962 9 55 55 8 210 150 7.95018 145.070 4 68 965 7.79246 144.940 T 75 955 11 262
2003319N13172 2003 98 WP MM LUPIT 2003-11-23 18:00:00 TS 7.77500 144.500 75 960 tokyo main 1133 1127 OOOO__________ jtwc_wp WP262003 7.80000 144.500 TY 95 949 2 140 100 100 120 1005 140 15 7.70000 144.500 5 75 960 9 60 60 8 220 160 0 7.90000 144.500 4 68 965 7.70000 144.500 T 75 955 8 264
2003319N13172 2003 98 WP MM LUPIT 2003-11-23 21:00:00 TS 7.75236 144.206 main 1140 1140 PPPP__________ WP262003 7.91991 144.128 TY 95 949 2 140 100 100 120 1005 140 15 7.67483 144.255 5 75 957 9 65 65 8 230 180 7.78982 144.212 4 68 965 7.62487 144.227 T 75 955 5 278
2003319N13172 2003 98 WP MM LUPIT 2003-11-24 00:00:00 TS 7.85000 143.975 75 955 tokyo main 1157 1157 OOOO__________ jtwc_wp WP262003 8.10000 143.800 TY 95 949 2 140 100 100 120 1005 140 15 7.80000 144.100 5 75 955 9 70 70 8 240 200 0 7.80000 144.000 4 68 965 7.70000 144.000 T 75 955 7 306
2003319N13172 2003 98 WP MM LUPIT 2003-11-24 03:00:00 TS 8.13933 143.664 main 1187 1187 PPPP__________ WP262003 8.27743 143.465 TY 95 949 2 140 100 100 130 1005 140 15 8.11995 143.838 5 75 955 9 72 72 8 250 210 8.09747 143.680 4 68 965 8.06249 143.673 T 75 955 9 314
2003319N13172 2003 98 WP MM LUPIT 2003-11-24 06:00:00 TS 8.50000 143.300 75 955 tokyo main 1242 1242 OOOO__________ jtwc_wp WP262003 8.50000 143.100 TY 95 949 2 140 100 100 140 1005 140 15 8.50000 143.500 5 75 955 9 75 75 8 260 220 0 8.50000 143.300 4 68 965 8.50000 143.300 T 75 955 10 309
2003319N13172 2003 98 WP MM LUPIT 2003-11-24 09:00:00 TS 8.75996 142.887 main 1275 1267 PPPP__________ WP262003 8.76994 142.680 TY 97 946 3 145 100 100 140 1005 140 15 8.73502 143.072 5 75 955 9 75 75 8 270 230 8.79250 142.865 4 68 962 8.74240 142.930 T 75 955 10 302
2003319N13172 2003 98 WP MM LUPIT 2003-11-24 12:00:00 TS 9.05000 142.425 75 955 tokyo main 1286 1282 OOOO__________ jtwc_wp WP262003 9.10000 142.200 TY 100 944 3 150 100 100 140 1005 140 15 9.00000 142.600 5 75 955 9 75 75 8 280 240 0 9.10000 142.400 4 68 960 9.00000 142.500 T 75 955 12 307
2003319N13172 2003 98 WP MM LUPIT 2003-11-24 15:00:00 TS 9.46929 141.948 main 1309 1309 PPPP__________ WP262003 9.48495 141.672 TY 102 941 3 150 100 100 140 1005 140 15 9.44981 142.180 5 75 955 9 75 75 8 290 250 9.49988 141.965 4 72 960 9.44251 141.973 T 77 952 13 311
2003319N13172 2003 98 WP MM LUPIT 2003-11-24 18:00:00 TS 9.90000 141.425 75 955 tokyo main 1336 1336 OOOO__________ jtwc_wp WP262003 9.90000 141.100 TY 105 938 3 150 100 100 140 1005 140 15 9.90000 141.700 5 75 955 9 75 75 8 300 260 0 9.90000 141.500 4 77 960 9.90000 141.400 T 80 950 13 305
2003319N13172 2003 98 WP MM LUPIT 2003-11-24 21:00:00 TS 10.2105 140.873 main 1351 1346 PPPP__________ WP262003 10.3074 140.507 TY 105 938 3 175 110 110 170 1005 220 15 10.1424 141.102 5 75 955 9 77 77 8 312 260 10.1923 141.002 4 77 960 10.1997 140.880 T 82 947 13 298
2003319N13172 2003 98 WP MM LUPIT 2003-11-25 00:00:00 TS 10.5250 140.250 75 955 tokyo main 1356 1352 OOOO__________ jtwc_wp WP262003 10.7000 139.900 TY 105 938 3 200 120 120 200 1005 300 15 10.4000 140.400 5 75 955 9 80 80 8 325 260 0 10.5000 140.400 4 77 960 10.5000 140.300 ST 85 945 16 300
2003319N13172 2003 98 WP MM LUPIT 2003-11-25 03:00:00 TS 10.9777 139.504 main 1380 1376 PPPP__________ WP262003 11.0650 139.285 TY 110 932 3 200 120 120 200 1004 250 15 10.9077 139.586 5 77 952 9 85 85 8 337 260 10.9654 139.593 4 77 960 10.9727 139.550 ST 87 942 17 301
2003319N13172 2003 98 WP MM LUPIT 2003-11-25 06:00:00 TS 11.4000 138.775 80 950 tokyo main 1399 1340 OOOO__________ jtwc_wp WP262003 11.4000 138.700 TY 115 927 4 200 120 120 200 1004 200 15 10 11.4000 138.800 5 80 950 9 90 90 8 350 260 0 11.4000 138.800 4 77 960 11.4000 138.800 ST 90 940 15 298
2003319N13172 2003 98 WP MM LUPIT 2003-11-25 09:00:00 TS 11.6517 138.186 main 1342 1291 PPPP__________ WP262003 11.7375 138.155 TY 115 927 4 210 130 130 210 1004 265 15 11.6448 138.175 5 80 947 9 90 90 8 375 260 11.6372 138.232 4 77 960 11.5874 138.182 ST 92 937 11 292
2003319N13172 2003 98 WP MM LUPIT 2003-11-25 12:00:00 TS 11.8250 137.725 80 945 tokyo main 1291 1264 OOOO__________ jtwc_wp WP262003 12.0000 137.700 TY 115 927 4 220 140 140 220 1004 330 15 15 11.8000 137.700 5 80 945 9 90 90 8 400 260 0 11.8000 137.800 4 77 960 11.7000 137.700 ST 95 935 9 294
2003319N13172 2003 98 WP MM LUPIT 2003-11-25 15:00:00 TS 12.0036 137.362 main 1264 1235 PPPP__________ WP262003 12.1149 137.355 TY 117 924 4 220 140 140 220 1004 265 15 11.9999 137.340 5 82 942 9 95 95 8 412 270 12.0074 137.405 4 82 955 11.8924 137.347 ST 97 932 7 300
2003319N13172 2003 98 WP MM LUPIT 2003-11-25 18:00:00 TS 12.1750 137.100 85 940 tokyo main 1238 1218 OOOO__________ jtwc_wp WP262003 12.2000 137.100 TY 120 922 4 220 140 140 220 1004 200 15 15 12.2000 137.100 5 85 940 9 100 100 8 425 280 0 12.2000 137.100 5 87 950 12.1000 137.100 SuperT 100 930 6 307
2003319N13172 2003 98 WP MM LUPIT 2003-11-25 21:00:00 TS 12.3512 136.890 main 1219 1199 PPPP__________ WP262003 12.3774 136.885 TY 125 916 4 220 140 140 220 1004 200 15 12.3925 136.920 5 87 937 9 105 105 8 437 290 12.3424 136.870 5 87 950 12.2924 136.885 SuperT 105 925 5 316
2003319N13172 2003 98 WP MM LUPIT 2003-11-26 00:00:00 TS 12.5500 136.725 90 935 tokyo main 1200 1191 OOOO__________ jtwc_wp WP262003 12.6000 136.700 ST 130 910 4 220 140 140 220 1004 200 15 30 12.6000 136.800 5 90 935 9 110 110 8 450 300 0 12.5000 136.700 5 87 950 12.5000 136.700 SuperT 110 920 5 324
2003319N13172 2003 98 WP MM LUPIT 2003-11-26 03:00:00 TS 12.7925 136.566 main 1192 1175 PPPP__________ WP262003 12.8425 136.493 ST 135 904 4 225 145 145 225 1005 310 15 12.8499 136.722 5 92 930 9 120 120 8 450 325 12.7349 136.557 5 92 945 12.7425 136.493 SuperT 115 915 6 328
2003319N13172 2003 98 WP MM LUPIT 2003-11-26 06:00:00 TS 13.0500 136.400 95 925 tokyo main 1177 1160 OOOO__________ jtwc_wp WP262003 13.1000 136.300 ST 140 898 5 230 150 150 230 1006 420 15 25 13.1000 136.600 5 95 925 9 130 130 8 450 350 0 13.0000 136.400 5 97 940 13.0000 136.300 SuperT 120 910 6 325
2003319N13172 2003 98 WP MM LUPIT 2003-11-26 09:00:00 TS 13.2987 136.206 main 1160 1143 PPPP__________ WP262003 13.3724 136.165 ST 140 898 5 235 157 157 235 1006 410 20 13.3075 136.330 5 97 922 9 135 135 8 475 350 13.2575 136.165 5 97 940 13.2574 136.165 SuperT 122 907 6 319
2003319N13172 2003 98 WP MM LUPIT 2003-11-26 12:00:00 TS 13.5250 135.975 100 920 tokyo main 1143 1117 OOOO__________ jtwc_wp WP262003 13.6000 136.000 ST 140 898 5 240 165 165 240 1006 400 25 20 13.5000 136.000 5 100 920 9 140 140 8 500 350 0 13.5000 135.900 5 97 940 13.5000 136.000 SuperT 125 905 7 310
2003319N13172 2003 98 WP MM LUPIT 2003-11-26 15:00:00 TS 13.7225 135.693 main 1117 1089 PPPP__________ WP262003 13.7151 135.715 ST 140 898 5 230 165 165 230 1003 320 20 13.7225 135.693 5 100 917 9 145 145 8 500 350 13.7225 135.650 5 97 940 13.7301 135.715 SuperT 125 905 7 302
2003319N13172 2003 98 WP MM LUPIT 2003-11-26 18:00:00 TS 13.8750 135.400 100 915 tokyo main 1089 1068 OOOO__________ jtwc_wp WP262003 13.8000 135.400 ST 140 898 5 220 165 165 220 1000 240 15 25 13.9000 135.400 5 100 915 9 150 150 8 500 350 0 13.9000 135.400 5 97 940 13.9000 135.400 SuperT 125 905 6 294
2003319N13172 2003 98 WP MM LUPIT 2003-11-26 21:00:00 TS 13.9568 135.144 main 1059 1038 PPPP__________ WP262003 13.9349 135.150 ST 140 898 5 220 172 157 210 1000 240 12 13.9500 135.135 5 100 915 9 155 155 8 500 350 14.0000 135.150 5 101 935 13.9424 135.142 SuperT 125 905 5 290
2003319N13172 2003 98 WP MM LUPIT 2003-11-27 00:00:00 TS 14.0500 134.900 100 915 tokyo main 1040 1021 OOOO__________ jtwc_wp WP262003 14.1000 134.900 ST 140 898 5 220 180 150 200 1000 240 10 15 14.0000 134.900 5 100 915 9 160 160 8 500 350 0 14.1000 134.900 6 106 930 14.0000 134.900 SuperT 125 905 6 301
2003319N13172 2003 98 WP MM LUPIT 2003-11-27 03:00:00 TS 14.2437 134.656 main 1021 994 PPPP__________ WP262003 14.2850 134.600 ST 140 898 5 220 180 185 200 999 240 10 14.1699 134.707 5 100 915 9 160 160 8 500 350 14.2924 134.658 6 111 925 14.2275 134.658 SuperT 125 905 6 311
2003319N13172 2003 98 WP MM LUPIT 2003-11-27 06:00:00 TS 14.4750 134.400 100 915 tokyo main 997 971 OOOO__________ jtwc_wp WP262003 14.5000 134.300 ST 140 898 5 220 180 220 200 999 240 10 20 14.4000 134.500 5 100 915 9 160 160 8 500 350 0 14.5000 134.400 6 116 920 14.5000 134.400 SuperT 125 905 7 311
2003319N13172 2003 98 WP MM LUPIT 2003-11-27 09:00:00 TS 14.6950 134.116 main 971 947 PPPP__________ WP262003 14.7574 134.050 ST 142 895 5 220 180 220 210 999 235 10 14.6575 134.208 5 100 915 9 160 160 8 475 350 14.6500 134.107 6 116 920 14.7150 134.100 SuperT 125 905 7 307
2003319N13172 2003 98 WP MM LUPIT 2003-11-27 12:00:00 TS 14.9000 133.825 100 915 tokyo main 947 930 OOOO__________ jtwc_wp WP262003 15.0000 133.800 ST 145 892 5 220 180 220 220 999 230 10 20 14.9000 133.900 5 100 915 9 160 160 8 450 350 0 14.8000 133.800 6 116 920 14.9000 133.800 SuperT 125 905 7 304
2003319N13172 2003 98 WP MM LUPIT 2003-11-27 15:00:00 TS 15.0719 133.535 main 923 907 PPPP__________ WP262003 15.1650 133.492 ST 140 898 5 220 180 220 220 999 230 10 15.0650 133.635 5 100 915 9 160 160 8 450 350 15.0000 133.478 6 116 920 15.0575 133.535 SuperT 122 907 6 302
2003319N13172 2003 98 WP MM LUPIT 2003-11-27 18:00:00 TS 15.2250 133.275 100 915 tokyo main 907 891 OOOO__________ jtwc_wp WP262003 15.3000 133.200 ST 135 904 4 220 180 220 220 999 230 10 15 15.2000 133.400 5 100 915 9 160 160 8 450 350 0 15.2000 133.200 6 116 920 15.2000 133.300 SuperT 120 910 5 302
2003319N13172 2003 98 WP MM LUPIT 2003-11-27 21:00:00 TS 15.3506 133.080 main 895 880 PPPP__________ WP262003 15.4124 132.992 ST 135 904 4 220 200 200 210 999 230 15 15.3275 133.192 5 100 917 9 160 160 8 450 337 15.3349 133.042 6 111 925 15.3275 133.092 SuperT 117 912 5 310
2003319N13172 2003 98 WP MM LUPIT 2003-11-28 00:00:00 TS 15.5250 132.900 100 920 tokyo main 880 870 OOOO__________ jtwc_wp WP262003 15.6000 132.800 ST 135 904 4 220 220 180 200 999 230 20 15.5000 133.000 5 100 920 9 160 160 8 450 325 0 15.5000 132.900 6 106 930 15.5000 132.900 SuperT 115 915 6 321
2003319N13172 2003 98 WP MM LUPIT 2003-11-28 03:00:00 TS 15.8200 132.688 main 875 866 PPPP__________ WP262003 15.9700 132.550 ST 135 904 4 220 220 190 200 999 230 20 15.7699 132.815 5 97 922 9 155 155 8 450 312 15.7700 132.672 6 101 935 15.7699 132.715 SuperT 115 915 8 326
2003319N13172 2003 98 WP MM LUPIT 2003-11-28 06:00:00 TS 16.1750 132.450 95 925 tokyo main 877 861 OOOO__________ jtwc_wp WP262003 16.4000 132.300 ST 135 904 4 220 220 200 200 999 230 20 40 16.1000 132.600 5 95 925 9 150 150 7 450 300 0 16.1000 132.400 5 97 940 16.1000 132.500 SuperT 115 915 9 325
2003319N13172 2003 98 WP MM LUPIT 2003-11-28 09:00:00 TS 16.5175 132.181 main 867 860 PPPP__________ WP262003 16.7649 132.107 ST 135 904 4 230 230 200 200 999 230 20 16.4350 132.308 5 92 927 9 150 150 7 450 300 16.4350 132.100 5 97 945 16.4350 132.208 SuperT 115 915 9 323
2003319N13172 2003 98 WP MM LUPIT 2003-11-28 12:00:00 TS 16.8750 131.900 90 930 tokyo main 866 855 OOOO__________ jtwc_wp WP262003 17.1000 131.900 ST 135 904 4 240 240 200 200 999 230 20 40 16.8000 132.000 5 90 930 9 150 150 7 450 300 0 16.8000 131.800 5 97 950 16.8000 131.900 SuperT 115 915 9 324
2003319N13172 2003 98 WP MM LUPIT 2003-11-28 15:00:00 TS 17.2444 131.626 main 855 850 PPPP__________ WP262003 17.4000 131.607 ST 130 910 4 240 240 200 200 1002 230 20 17.1925 131.735 5 87 932 9 145 145 7 425 300 17.1925 131.527 5 92 950 17.1925 131.635 SuperT 110 920 9 326
2003319N13172 2003 98 WP MM LUPIT 2003-11-28 18:00:00 TS 17.6250 131.375 85 935 tokyo main 856 848 OOOO__________ jtwc_wp WP262003 17.7000 131.300 TY 125 916 4 240 240 200 200 1006 230 20 45 17.6000 131.500 5 85 935 9 140 140 7 400 300 0 17.6000 131.300 5 87 950 17.6000 131.400 SuperT 105 925 9 329
2003319N13172 2003 98 WP MM LUPIT 2003-11-28 21:00:00 TS 18.0087 131.149 main 850 850 PPPP__________ WP262003 18.0350 131.027 TY 120 921 4 240 240 200 200 1006 230 20 18.0000 131.277 5 85 935 9 140 140 7 375 300 18.0000 131.120 5 87 950 18.0000 131.170 SuperT 102 927 9 334
2003319N13172 2003 98 WP MM LUPIT 2003-11-29 00:00:00 TS 18.4000 130.975 85 935 tokyo main 866 864 OOOO__________ jtwc_wp WP262003 18.4000 130.800 TY 115 927 4 240 240 200 200 1006 230 20 45 18.4000 131.100 5 85 935 9 140 140 7 350 300 0 18.4000 131.000 5 87 950 18.4000 131.000 SuperT 100 930 8 340
2003319N13172 2003 98 WP MM LUPIT 2003-11-29 03:00:00 TS 18.8000 130.844 main 875 875 PPPP__________ WP262003 18.7850 130.583 TY 110 932 3 240 240 200 200 1006 230 20 18.8075 130.963 5 85 937 9 140 140 7 337 300 18.8000 130.920 5 87 950 18.8075 130.912 SuperT 97 932 8 348
2003319N13172 2003 98 WP MM LUPIT 2003-11-29 06:00:00 TS 19.2000 130.800 85 940 tokyo main 899 899 OOOO__________ jtwc_wp WP262003 19.2000 130.500 TY 105 938 3 240 240 200 200 1006 230 20 35 19.2000 130.900 5 85 940 9 140 140 7 325 300 0 19.2000 130.900 5 87 950 19.2000 130.900 ST 95 935 8 358
2003319N13172 2003 98 WP MM LUPIT 2003-11-29 09:00:00 TS 19.5799 130.818 main 903 903 PPPP__________ WP262003 19.6349 130.618 TY 105 938 3 230 230 190 190 1006 280 17 19.5423 130.875 5 85 940 9 140 140 7 325 300 19.5998 130.883 5 87 950 19.5424 130.898 ST 95 935 8 12
2003319N13172 2003 98 WP MM LUPIT 2003-11-29 12:00:00 TS 19.9750 130.975 85 940 tokyo main 930 930 OOOO__________ jtwc_wp WP262003 20.1000 130.900 TY 105 938 3 220 220 180 180 1006 330 15 35 19.9000 131.000 5 85 940 9 140 140 7 325 300 0 20.0000 131.000 5 87 950 19.9000 131.000 ST 95 935 9 29
2003319N13172 2003 98 WP MM LUPIT 2003-11-29 15:00:00 TS 20.4082 131.299 main 969 969 PPPP__________ WP262003 20.5925 131.263 TY 102 941 3 215 215 175 175 1006 322 17 20.3277 131.347 5 85 940 9 140 140 7 325 300 20.3852 131.347 5 87 950 20.3274 131.240 ST 92 937 11 38
2003319N13172 2003 98 WP MM LUPIT 2003-11-29 18:00:00 TS 20.8750 131.725 85 940 tokyo main 1023 1023 OOOO__________ jtwc_wp WP262003 21.1000 131.700 TY 100 944 3 210 210 170 170 1006 315 20 40 20.8000 131.800 5 85 940 9 140 140 7 325 300 0 20.8000 131.800 5 87 950 20.8000 131.600 ST 90 940 12 39
2003319N13172 2003 98 WP MM LUPIT 2003-11-29 21:00:00 TS 21.3484 132.110 main 1074 1043 PPPP__________ WP262003 21.5846 132.106 TY 100 944 3 210 210 170 170 1006 315 20 21.2620 132.156 5 82 942 9 135 135 7 312 290 21.2697 132.171 5 87 950 21.2773 132.005 ST 87 942 13 38
2003319N13172 2003 98 WP MM LUPIT 2003-11-30 00:00:00 TS 21.8750 132.575 80 945 tokyo main 1033 989 OOOO__________ jtwc_wp WP262003 22.1000 132.600 TY 100 944 3 210 210 170 170 1006 315 20 40 21.8000 132.600 5 80 945 9 130 130 7 300 280 0 21.8000 132.600 5 87 950 21.8000 132.500 ST 85 945 15 41
2003319N13172 2003 98 WP MM LUPIT 2003-11-30 03:00:00 TS 22.4660 133.166 main 981 933 PPPP__________ WP262003 22.6776 133.263 TY 100 944 3 210 190 190 170 1006 315 20 22.4624 133.233 5 80 945 9 125 125 7 300 280 22.3696 133.133 5 82 955 22.3545 133.034 ST 82 947 17 44
2003319N13172 2003 98 WP MM LUPIT 2003-11-30 06:00:00 TS 23.1250 133.875 80 945 tokyo main 937 891 OOOO__________ jtwc_wp WP262003 23.3000 134.000 TY 100 944 3 210 170 210 170 1006 315 20 25 23.2000 134.000 5 80 945 9 120 120 7 300 280 0 23.0000 133.800 4 77 960 23.0000 133.700 T 80 950 19 45
2003319N13172 2003 98 WP MM LUPIT 2003-11-30 09:00:00 TS 23.8364 134.646 main 891 860 PPPP__________ WP262003 23.9489 134.649 TY 97 946 3 205 160 205 160 1006 307 20 23.9496 134.813 5 80 945 9 120 120 7 300 280 23.6621 134.584 4 77 960 23.7849 134.540 T 77 952 21 46
2003319N13172 2003 98 WP MM LUPIT 2003-11-30 12:00:00 TS 24.5750 135.525 80 945 tokyo main 855 843 OOOO__________ jtwc_wp WP262003 24.6000 135.400 TY 95 949 2 200 150 200 150 1006 300 20 25 24.7000 135.700 5 80 945 9 120 120 7 300 280 0 24.4000 135.500 4 77 960 24.6000 135.500 T 75 955 23 50
2003319N13172 2003 98 WP MM LUPIT 2003-11-30 15:00:00 TS 25.3088 136.552 main 849 840 PPPP__________ WP262003 25.1564 136.458 TY 87 956 2 190 145 190 145 1007 270 20 25.4527 136.664 5 80 947 9 110 110 7 300 270 25.2807 136.563 4 72 962 25.3453 136.522 T 72 957 23 52
2003319N13172 2003 98 WP MM LUPIT 2003-11-30 18:00:00 TS 26.0000 137.550 80 950 tokyo main 843 803 OOOO__________ jtwc_wp WP262003 25.8000 137.500 TY 80 963 1 180 140 180 140 1008 240 20 26.1000 137.600 5 80 950 9 100 100 7 300 260 0 26.1000 137.600 4 68 965 26.0000 137.500 T 70 960 20 53
2003319N13172 2003 98 WP MM LUPIT 2003-11-30 21:00:00 TS 26.5114 138.326 main 806 763 PPPP__________ WP262003 26.6963 138.219 TY 75 967 1 167 132 167 132 1008 236 22 26.3557 138.351 5 75 955 9 100 100 7 300 260 26.5616 138.421 4 63 967 26.4318 138.313 T 67 962 18 48
2003319N13172 2003 98 WP MM LUPIT 2003-12-01 00:00:00 TS 27.1750 139.000 70 960 tokyo main 756 683 OOOO__________ jtwc_wp WP262003 27.7000 138.800 TY 70 972 1 155 125 155 125 1008 232 25 26.9000 139.100 5 70 960 9 100 100 7 300 260 0 27.1000 139.100 3 58 970 27.0000 139.000 T 65 965 21 34
2003319N13172 2003 98 WP MM LUPIT 2003-12-01 03:00:00 TS 28.2880 139.664 65 965 tokyo main 679 603 POPP__________ WP262003 28.6936 139.349 TY 67 974 1 155 125 155 125 1008 232 25 28.2000 140.000 5 65 965 9 100 100 7 300 260 0 28.1543 139.707 3 56 975 28.1042 139.600 T 62 967 24 26
2003319N13172 2003 98 WP MM LUPIT 2003-12-01 06:00:00 TS 29.3750 140.200 60 970 tokyo main 594 525 OOOO__________ jtwc_wp WP262003 29.6000 140.000 TY 65 976 1 155 125 155 125 1008 232 25 29.3000 140.300 4 60 970 9 100 100 7 300 260 0 29.3000 140.300 3 54 980 29.3000 140.200 STS 60 970 23 29
2003319N13172 2003 98 WP MM LUPIT 2003-12-01 09:00:00 TS 30.2585 140.924 60 970 tokyo main 518 476 POPP__________ WP262003 30.2948 140.919 TY 62 978 0 155 125 155 125 30.4000 141.000 4 60 970 9 100 100 7 300 260 0 30.1658 140.913 3 51 982 30.1735 140.863 STS 57 972 21 42
2003319N13172 2003 98 WP MM LUPIT 2003-12-01 12:00:00 TS 30.9000 141.780 60 975 tokyo main 479 468 OOOO__________ jtwc_wp WP262003 30.9000 142.000 TS 60 980 0 155 125 155 125 30.9000 141.700 4 60 975 9 100 100 7 300 260 0 30.9000 141.700 3 48 985 30.9000 141.700 STS 55 975 21 54
2003319N13172 2003 98 WP MM LUPIT 2003-12-01 15:00:00 TS 31.5057 142.927 main 470 469 PPPP__________ WP262003 31.5127 143.152 TS 60 980 0 155 125 155 125 31.4664 142.826 4 60 975 9 100 100 7 300 260 31.5687 142.800 3 46 986 31.5064 142.865 STS 52 977 24 57
2003319N13172 2003 98 WP MM LUPIT 2003-12-01 18:00:00 TS 32.2000 144.167 60 975 tokyo main 484 481 OOOO__________ jtwc_wp WP262003 32.2000 144.300 TS 60 980 0 155 125 155 125 32.2000 144.100 4 60 975 9 100 100 7 300 260 0 32.2000 144.100 2 44 988 32.2000 144.100 STS 50 980 26 49
2003319N13172 2003 98 WP MM LUPIT 2003-12-01 21:00:00 TS 33.1705 145.224 main 482 482 PP_P__________ WP262003 33.0681 145.302 TS 57 982 0 155 125 155 125 33.2570 145.180 4 57 977 9 100 100 7 290 255 2 33.2024 145.156 STS 47 982 26 40
2003319N13172 2003 98 WP MM LUPIT 2003-12-02 00:00:00 MX 34.2000 146.175 55 980 tokyo main 510 510 OO_O__________ jtwc_wp WP262003 34.0000 146.300 ET 55 984 -4 155 125 155 125 34.3000 146.100 4 55 980 9 100 100 7 280 250 0 34.4000 146.100 TS 45 985 23 39
2003319N13172 2003 98 WP MM LUPIT 2003-12-02 03:00:00 MX 34.9349 146.958 main 559 557 PP____________ WP262003 34.8755 147.408 ET 52 985 -4 155 125 155 125 34.9646 146.733 4 55 980 9 100 100 7 280 250 TS 18 42
2003319N13172 2003 98 WP MM LUPIT 2003-12-02 06:00:00 MX 35.5400 147.640 55 980 tokyo main 604 604 OO____________ jtwc_wp WP262003 35.7000 148.600 ET 50 987 -4 155 125 155 125 35.5000 147.400 4 55 980 9 100 100 7 280 250 0 17 46
2003319N13172 2003 98 WP MM LUPIT 2003-12-02 09:00:00 TS 36.0916 148.424 main 656 656 _P____________ WP262003 ET -4 36.0916 148.424 4 980 9 7 20 55
2003319N13172 2003 98 WP MM LUPIT 2003-12-02 12:00:00 ET 36.7000 149.700 980 tokyo main 732 732 _O____________ 36.7000 149.700 6 980 0 0 0 25 60
2003319N13172 2003 98 WP MM LUPIT 2003-12-02 15:00:00 ET 37.3410 151.112 main 809 805 _P____________ 37.3410 151.112 6 980 0 0 27 61
2003319N13172 2003 98 WP MM LUPIT 2003-12-02 18:00:00 ET 38.0000 152.700 980 tokyo main 837 837 _O____________ 38.0000 152.700 6 980 0 0 0 29 64
2003319N13172 2003 98 WP MM LUPIT 2003-12-02 21:00:00 ET 38.6263 154.409 main 868 862 _P____________ 38.6263 154.409 6 980 0 0 30 65
2003319N13172 2003 98 WP MM LUPIT 2003-12-03 00:00:00 ET 39.3000 156.200 980 tokyo main 878 878 _O____________ 39.3000 156.200 6 980 0 0 0 31 62
2003319N13172 2003 98 WP MM LUPIT 2003-12-03 03:00:00 ET 40.0748 157.992 main 904 904 _P____________ 40.0748 157.992 6 980 0 0 32 60
2003319N13172 2003 98 WP MM LUPIT 2003-12-03 06:00:00 ET 40.9000 159.800 980 tokyo main 950 _O____________ 40.9000 159.800 6 980 0 0 0 32 59

デジタル台風データ・検索

IBTrACS Databaseについて

本データベースは、米国NOAAが公開する1842年以降の世界の熱帯低気圧のベストトラックデータアーカイブInternational Best Track Archive for Climate Stewardship (IBTrACS)を、ウェブで閲覧しやすい形式に変換したものです。

最終更新日:2021-10-08